createdAt,value
2019-01-03T00:00:25.427Z,2.27
2019-01-03T00:02:56.321Z,2.10
2019-01-03T00:05:35.989Z,2.10
2019-01-03T00:08:24.755Z,2.10
2019-01-03T00:10:58.342Z,2.40
2019-01-03T00:13:44.114Z,2.70
2019-01-03T00:16:33.027Z,2.33
2019-01-03T00:19:04.246Z,2.37
2019-01-03T00:21:35.273Z,2.03
2019-01-03T00:24:22.389Z,2.30
2019-01-03T00:27:09.359Z,2.30
2019-01-03T00:29:42.718Z,2.53
2019-01-03T00:32:13.698Z,2.30
2019-01-03T00:35:01.011Z,2.33
2019-01-03T00:37:40.079Z,1.80
2019-01-03T00:40:16.538Z,2.10
2019-01-03T00:42:59.589Z,2.50
2019-01-03T00:45:36.505Z,2.00
2019-01-03T00:48:10.061Z,2.10
2019-01-03T00:50:40.951Z,2.07
2019-01-03T00:53:17.410Z,2.67
2019-01-03T00:56:06.178Z,1.70
2019-01-03T00:58:46.035Z,2.00
2019-01-03T01:01:33.219Z,2.43
2019-01-03T01:04:04.192Z,2.20
2019-01-03T01:06:51.173Z,2.50
2019-01-03T01:09:40.006Z,2.20
2019-01-03T01:12:10.655Z,2.17
2019-01-03T01:14:59.310Z,2.00
2019-01-03T01:17:45.974Z,2.30
2019-01-03T01:20:25.763Z,2.37
2019-01-03T01:23:08.334Z,1.93
2019-01-03T01:25:42.007Z,2.30
2019-01-03T01:28:12.646Z,2.00
2019-01-03T01:30:59.627Z,2.10
2019-01-03T01:33:46.306Z,1.90
2019-01-03T01:36:23.250Z,2.20
2019-01-03T01:38:59.843Z,2.00
2019-01-03T01:41:33.438Z,2.37
2019-01-03T01:44:13.514Z,2.23
2019-01-03T01:47:00.615Z,2.20
2019-01-03T01:49:47.685Z,1.80
2019-01-03T01:52:23.998Z,2.23
2019-01-03T01:54:57.005Z,1.63
2019-01-03T01:57:42.701Z,2.07
2019-01-03T02:00:25.066Z,1.83
2019-01-03T02:02:55.609Z,1.90
2019-01-03T02:05:35.287Z,1.90
2019-01-03T02:08:11.830Z,1.83
2019-01-03T02:10:48.415Z,1.87
2019-01-03T02:13:35.170Z,1.90
2019-01-03T02:16:05.722Z,1.87
2019-01-03T02:18:54.110Z,2.10
2019-01-03T02:21:27.218Z,1.90
2019-01-03T02:24:00.974Z,1.73
2019-01-03T02:26:48.145Z,1.70
2019-01-03T02:29:21.696Z,1.93
2019-01-03T02:31:52.642Z,1.80
2019-01-03T02:34:23.611Z,2.10
2019-01-03T02:36:54.587Z,1.63
2019-01-03T02:39:31.492Z,1.73
2019-01-03T02:42:14.544Z,1.57
2019-01-03T02:44:45.514Z,1.80
2019-01-03T02:47:28.567Z,1.60
2019-01-03T02:49:59.207Z,1.80
2019-01-03T02:52:46.118Z,2.00
2019-01-03T02:55:22.907Z,1.80
2019-01-03T02:58:10.085Z,2.10
2019-01-03T03:00:41.066Z,2.00
2019-01-03T03:03:12.033Z,1.77
2019-01-03T03:05:59.301Z,2.40
2019-01-03T03:08:36.020Z,2.20
2019-01-03T03:11:18.687Z,1.60
2019-01-03T03:14:05.878Z,1.73
2019-01-03T03:16:51.691Z,1.70
2019-01-03T03:19:31.274Z,1.60
2019-01-03T03:22:02.241Z,2.00
2019-01-03T03:24:36.236Z,1.50
2019-01-03T03:27:13.270Z,2.57
2019-01-03T03:30:00.334Z,1.93
2019-01-03T03:32:37.150Z,2.00
2019-01-03T03:35:08.187Z,2.20
2019-01-03T03:37:45.122Z,1.83
2019-01-03T03:40:16.100Z,1.90
2019-01-03T03:42:47.127Z,1.77
2019-01-03T03:45:20.754Z,2.00
2019-01-03T03:47:54.427Z,1.80
2019-01-03T03:50:34.363Z,1.80
2019-01-03T03:53:05.336Z,1.70
2019-01-03T03:55:54.160Z,1.93
2019-01-03T03:58:27.839Z,1.73
2019-01-03T04:01:14.739Z,1.97
2019-01-03T04:04:01.755Z,1.97
2019-01-03T04:06:32.395Z,1.77
2019-01-03T04:09:02.941Z,1.60
2019-01-03T04:11:36.480Z,1.70
2019-01-03T04:14:25.130Z,1.50
2019-01-03T04:16:55.669Z,2.43
2019-01-03T04:19:32.066Z,1.80
2019-01-03T04:22:03.036Z,1.97
2019-01-03T04:24:42.698Z,1.80
2019-01-03T04:27:25.903Z,1.90
2019-01-03T04:29:56.871Z,1.67
2019-01-03T04:32:44.107Z,2.13
2019-01-03T04:35:20.492Z,1.50
2019-01-03T04:38:00.063Z,2.00
2019-01-03T04:40:47.217Z,1.97
2019-01-03T04:43:34.241Z,1.83
2019-01-03T04:46:10.312Z,2.47
2019-01-03T04:48:43.841Z,8.03
2019-01-03T04:51:17.403Z,5.57
2019-01-03T04:54:03.998Z,5.93
2019-01-03T04:56:34.546Z,8.53
2019-01-03T04:59:08.238Z,3.80
2019-01-03T05:02:01.106Z,3.60
2019-01-03T05:04:43.811Z,2.50
2019-01-03T05:07:23.295Z,2.60
2019-01-03T05:09:53.853Z,2.13
2019-01-03T05:12:40.816Z,2.40
2019-01-03T05:15:11.357Z,1.90
2019-01-03T05:17:42.255Z,1.90
2019-01-03T05:20:31.068Z,2.13
2019-01-03T05:23:04.267Z,2.63
2019-01-03T05:25:37.631Z,1.90
2019-01-03T05:28:14.095Z,2.17
2019-01-03T05:31:02.770Z,1.80
2019-01-03T05:33:38.911Z,1.90
2019-01-03T05:36:25.791Z,1.80
2019-01-03T05:39:11.433Z,2.10
2019-01-03T05:41:53.882Z,1.97
2019-01-03T05:44:30.070Z,2.00
2019-01-03T05:47:09.762Z,2.00
2019-01-03T05:49:46.622Z,2.47
2019-01-03T05:52:17.260Z,2.30
2019-01-03T05:54:47.810Z,2.27
2019-01-03T05:57:18.722Z,2.10
2019-01-03T05:59:52.166Z,2.50
2019-01-03T06:02:26.120Z,2.10
2019-01-03T06:04:59.394Z,2.23
2019-01-03T06:07:42.350Z,2.17
2019-01-03T06:10:13.320Z,2.10
2019-01-03T06:12:53.231Z,2.07
2019-01-03T06:15:33.039Z,2.13
2019-01-03T06:18:18.655Z,2.87
2019-01-03T06:21:05.218Z,3.63
2019-01-03T06:23:38.447Z,2.90
2019-01-03T06:26:11.786Z,3.60
2019-01-03T06:28:51.154Z,2.03
2019-01-03T06:31:37.835Z,1.80
2019-01-03T06:34:11.734Z,1.67
2019-01-03T06:36:42.374Z,1.90
2019-01-03T06:39:21.838Z,1.97
2019-01-03T06:41:55.298Z,2.30
2019-01-03T06:44:34.761Z,1.97
2019-01-03T06:47:08.070Z,2.40
2019-01-03T06:49:41.263Z,2.30
2019-01-03T06:52:17.600Z,2.23
2019-01-03T06:54:48.142Z,1.90
2019-01-03T06:57:27.917Z,2.07
2019-01-03T07:03:00.729Z,1.87
2019-01-03T07:05:46.247Z,1.73
2019-01-03T07:08:16.795Z,2.17
2019-01-03T07:10:47.342Z,1.90
2019-01-03T07:13:18.214Z,2.07
2019-01-03T07:15:57.993Z,2.23
2019-01-03T07:18:46.437Z,2.47
2019-01-03T07:21:27.261Z,2.50
2019-01-03T07:23:55.577Z,2.47
2019-01-03T07:26:42.645Z,2.50
2019-01-03T07:29:19.128Z,2.63
2019-01-03T07:31:52.600Z,2.90
2019-01-03T07:34:39.805Z,2.87
2019-01-03T07:37:22.476Z,2.83
2019-01-03T07:39:53.014Z,2.37
2019-01-03T07:42:26.290Z,2.60
2019-01-03T07:45:14.319Z,2.30
2019-01-03T07:47:52.538Z,3.00
2019-01-03T07:50:23.061Z,3.00
2019-01-03T07:53:10.009Z,3.10
2019-01-03T07:55:40.638Z,2.93
2019-01-03T07:58:27.601Z,3.20
2019-01-03T08:01:04.142Z,2.90
2019-01-03T08:03:35.028Z,2.77
2019-01-03T08:06:08.597Z,2.60
2019-01-03T08:08:45.308Z,2.50
2019-01-03T08:11:18.821Z,2.80
2019-01-03T08:13:49.357Z,2.67
2019-01-03T08:16:25.901Z,2.60
2019-01-03T08:18:56.432Z,2.80
2019-01-03T08:21:32.831Z,2.90
2019-01-03T08:24:19.786Z,2.53
2019-01-03T08:27:02.658Z,2.13
2019-01-03T08:29:33.626Z,2.37
2019-01-03T08:32:04.591Z,3.03
2019-01-03T08:34:51.624Z,5.67
2019-01-03T08:37:31.490Z,7.97
2019-01-03T08:40:18.307Z,3.60
2019-01-03T08:43:06.068Z,3.80
2019-01-03T08:45:54.882Z,3.47
2019-01-03T08:48:28.191Z,3.70
2019-01-03T08:51:13.484Z,3.90
2019-01-03T08:53:53.093Z,3.63
2019-01-03T08:56:29.694Z,5.67
2019-01-03T08:59:03.153Z,7.10
2019-01-03T09:01:36.645Z,3.47
2019-01-03T09:04:07.189Z,3.43
2019-01-03T09:06:52.905Z,3.13
2019-01-03T09:09:39.494Z,3.30
2019-01-03T09:12:18.574Z,3.30
2019-01-03T09:14:49.109Z,2.87
2019-01-03T09:17:28.579Z,2.90
2019-01-03T09:19:59.546Z,2.80
2019-01-03T09:22:36.181Z,2.70
2019-01-03T09:25:07.906Z,2.98
2019-01-03T09:27:50.818Z,2.70
2019-01-03T09:30:37.813Z,3.00
2019-01-03T09:33:24.738Z,2.80
2019-01-03T09:36:01.742Z,2.40
2019-01-03T09:38:32.708Z,2.67
2019-01-03T09:41:21.757Z,2.77
2019-01-03T09:43:52.727Z,2.67
2019-01-03T09:46:22.044Z,2.80
2019-01-03T09:48:51.374Z,2.50
2019-01-03T09:51:20.690Z,2.90
2019-01-03T09:53:50.009Z,3.17
2019-01-03T09:56:19.337Z,2.90
2019-01-03T09:58:48.654Z,2.27
2019-01-03T10:01:17.978Z,2.77
2019-01-03T10:03:47.298Z,2.97
2019-01-03T10:06:16.619Z,2.43
2019-01-03T10:08:45.934Z,2.60
2019-01-03T10:11:15.258Z,2.40
2019-01-03T10:13:44.586Z,2.80
2019-01-03T10:16:13.909Z,2.87
2019-01-03T10:18:43.243Z,2.47
2019-01-03T10:21:12.565Z,2.50
2019-01-03T10:23:41.897Z,3.27
2019-01-03T10:26:11.233Z,2.90
2019-01-03T10:28:40.564Z,2.47
2019-01-03T10:31:11.297Z,2.70
2019-01-03T10:33:40.795Z,2.80
2019-01-03T10:36:10.126Z,2.50
2019-01-03T10:38:39.449Z,2.63
2019-01-03T10:41:08.773Z,2.47
2019-01-03T10:43:38.102Z,2.50
2019-01-03T10:46:07.427Z,2.43
2019-01-03T10:48:36.753Z,2.80
2019-01-03T10:51:06.158Z,11.17
2019-01-03T10:53:35.481Z,2.83
2019-01-03T10:56:04.809Z,2.60
2019-01-03T10:58:34.139Z,2.70
2019-01-03T11:01:03.457Z,2.57
2019-01-03T11:03:32.786Z,3.03
2019-01-03T11:06:02.114Z,2.77
2019-01-03T11:08:31.429Z,3.13
2019-01-03T11:11:02.178Z,2.60
2019-01-03T11:13:31.657Z,3.27
2019-01-03T11:16:00.977Z,2.97
2019-01-03T11:18:30.303Z,2.97
2019-01-03T11:20:59.634Z,3.30
2019-01-03T11:23:28.956Z,3.40
2019-01-03T11:25:58.277Z,3.13
2019-01-03T11:28:27.592Z,3.03
2019-01-03T11:30:56.913Z,3.30
2019-01-03T11:33:26.250Z,3.37
2019-01-03T11:35:55.574Z,3.40
2019-01-03T11:38:24.886Z,3.77
2019-01-03T11:40:54.210Z,3.60
2019-01-03T11:43:23.535Z,3.57
2019-01-03T11:45:52.881Z,3.60
2019-01-03T11:48:22.201Z,3.57
2019-01-03T11:50:51.521Z,3.17
2019-01-03T11:53:20.849Z,3.50
2019-01-03T11:55:50.173Z,2.80
2019-01-03T11:58:19.493Z,3.80
2019-01-03T12:00:48.813Z,3.87
2019-01-03T12:03:18.129Z,3.30
2019-01-03T12:05:47.457Z,2.73
2019-01-03T12:08:16.771Z,3.03
2019-01-03T12:10:46.096Z,2.93
2019-01-03T12:13:15.427Z,3.43
2019-01-03T12:15:44.758Z,3.00
2019-01-03T12:18:14.068Z,3.20
2019-01-03T12:20:43.390Z,3.17
2019-01-03T12:23:12.729Z,3.30
2019-01-03T12:25:42.042Z,2.97
2019-01-03T12:28:11.365Z,3.10
2019-01-03T12:30:40.697Z,3.23
2019-01-03T12:33:10.023Z,4.37
2019-01-03T12:35:39.345Z,4.17
2019-01-03T12:38:08.684Z,3.70
2019-01-03T12:40:38.031Z,3.43
2019-01-03T12:43:07.354Z,3.30
2019-01-03T12:45:36.679Z,3.17
2019-01-03T12:48:05.998Z,3.00
2019-01-03T12:50:35.322Z,2.93
2019-01-03T12:53:04.641Z,3.43
2019-01-03T12:55:33.965Z,2.70
2019-01-03T12:58:03.293Z,3.30
2019-01-03T13:00:32.614Z,3.30
2019-01-03T13:03:01.939Z,3.47
2019-01-03T13:05:31.261Z,3.60
2019-01-03T13:08:00.607Z,3.27
2019-01-03T13:10:29.935Z,3.17
2019-01-03T13:12:59.261Z,4.17
2019-01-03T13:15:28.590Z,3.40
2019-01-03T13:17:58.013Z,2.70
2019-01-03T13:20:27.337Z,3.17
2019-01-03T13:22:56.661Z,3.20
2019-01-03T13:25:25.986Z,3.90
2019-01-03T13:27:55.306Z,3.50
2019-01-03T13:30:24.629Z,3.00
2019-01-03T13:32:58.947Z,3.40
2019-01-03T13:35:28.266Z,3.67
2019-01-03T13:37:57.585Z,3.90
2019-01-03T13:40:26.901Z,3.30
2019-01-03T13:42:56.226Z,4.00
2019-01-03T13:45:25.542Z,3.87
2019-01-03T13:47:54.862Z,3.77
2019-01-03T13:50:24.185Z,3.30
2019-01-03T13:52:53.501Z,3.60
2019-01-03T13:55:22.863Z,4.10
2019-01-03T13:57:52.221Z,3.90
2019-01-03T14:00:21.542Z,3.83
2019-01-03T14:02:50.865Z,3.50
2019-01-03T14:05:20.190Z,4.17
2019-01-03T14:07:49.509Z,3.67
2019-01-03T14:10:18.838Z,4.27
2019-01-03T14:12:48.157Z,4.10
2019-01-03T14:15:17.486Z,4.10
2019-01-03T14:17:47.646Z,3.67
2019-01-03T14:20:16.970Z,4.97
2019-01-03T14:22:46.294Z,4.67
2019-01-03T14:25:15.618Z,4.60
2019-01-03T14:27:44.946Z,4.27
2019-01-03T14:30:14.269Z,4.97
2019-01-03T14:32:43.594Z,4.07
2019-01-03T14:35:12.922Z,4.13
2019-01-03T14:37:42.241Z,4.17
2019-01-03T14:40:11.568Z,4.30
2019-01-03T14:42:40.890Z,3.57
2019-01-03T14:45:10.218Z,3.80
2019-01-03T14:47:39.542Z,4.30
2019-01-03T14:50:10.213Z,4.03
2019-01-03T14:53:03.848Z,3.67
2019-01-03T14:55:33.170Z,3.50
2019-01-03T14:58:02.610Z,3.57
2019-01-03T15:00:31.930Z,3.10
2019-01-03T15:03:01.249Z,3.67
2019-01-03T15:05:30.578Z,4.40
2019-01-03T15:07:59.893Z,3.80
2019-01-03T15:10:29.213Z,3.47
2019-01-03T15:12:58.542Z,4.30
2019-01-03T15:15:27.869Z,3.70
2019-01-03T15:17:57.186Z,4.60
2019-01-03T15:20:26.514Z,4.03
2019-01-03T15:22:55.829Z,3.97
2019-01-03T15:25:25.158Z,3.93
2019-01-03T15:27:54.493Z,3.80
2019-01-03T15:30:23.821Z,4.60
2019-01-03T15:32:53.137Z,3.83
2019-01-03T15:35:22.457Z,4.37
2019-01-03T15:37:51.789Z,4.17
2019-01-03T15:40:21.109Z,4.43
2019-01-03T15:42:50.435Z,4.03
2019-01-03T15:45:19.758Z,4.40
2019-01-03T15:47:49.084Z,4.37
2019-01-03T15:50:18.406Z,3.90
2019-01-03T15:52:47.732Z,4.37
2019-01-03T15:55:17.058Z,3.60
2019-01-03T15:57:46.373Z,4.43
2019-01-03T16:00:15.694Z,4.00
2019-01-03T16:02:45.017Z,3.90
2019-01-03T16:05:14.343Z,3.90
2019-01-03T16:07:43.667Z,3.43
2019-01-03T16:10:13.005Z,3.87
2019-01-03T16:12:42.321Z,4.13
2019-01-03T16:15:11.654Z,4.20
2019-01-03T16:17:40.978Z,4.50
2019-01-03T16:20:10.301Z,4.53
2019-01-03T16:22:39.621Z,4.90
2019-01-03T16:25:08.945Z,4.70
2019-01-03T16:27:38.274Z,4.90
2019-01-03T16:30:09.489Z,4.93
2019-01-03T16:32:43.821Z,4.30
2019-01-03T16:35:13.154Z,4.90
2019-01-03T16:37:42.478Z,4.97
2019-01-03T16:40:11.807Z,5.00
2019-01-03T16:42:42.279Z,4.53
2019-01-03T16:45:12.246Z,5.30
2019-01-03T16:47:41.570Z,5.30
2019-01-03T16:50:13.442Z,5.13
2019-01-03T16:52:42.770Z,5.30
2019-01-03T16:55:12.090Z,5.33
2019-01-03T16:57:41.427Z,5.40
2019-01-03T17:00:10.985Z,5.90
2019-01-03T17:02:39.971Z,5.60
2019-01-03T17:05:09.352Z,6.30
2019-01-03T17:07:38.345Z,5.93
2019-01-03T17:10:08.927Z,6.10
2019-01-03T17:12:38.162Z,8.83
2019-01-03T17:15:07.722Z,5.20
2019-01-03T17:17:37.056Z,5.90
2019-01-03T17:20:09.034Z,5.80
2019-01-03T17:22:38.362Z,6.33
2019-01-03T17:25:09.931Z,5.97
2019-01-03T17:27:39.258Z,5.97
2019-01-03T17:30:10.221Z,5.40
2019-01-03T17:32:39.617Z,5.67
2019-01-03T17:35:09.392Z,5.47
2019-01-03T17:37:38.621Z,5.13
2019-01-03T17:40:09.093Z,6.00
2019-01-03T17:42:38.398Z,5.20
2019-01-03T17:45:10.066Z,6.90
2019-01-03T17:47:39.053Z,5.70
2019-01-03T17:50:10.730Z,6.30
2019-01-03T17:52:40.057Z,5.70
2019-01-03T17:55:09.386Z,6.03
2019-01-03T17:57:38.386Z,5.90
2019-01-03T18:00:13.176Z,6.30
2019-01-03T18:02:42.497Z,5.90
2019-01-03T18:05:11.821Z,6.47
2019-01-03T18:07:40.826Z,6.13
2019-01-03T18:10:11.101Z,6.47
2019-01-03T18:12:40.019Z,6.53
2019-01-03T18:15:09.086Z,6.10
2019-01-03T18:17:38.402Z,6.17
2019-01-03T18:20:09.169Z,5.57
2019-01-03T18:22:38.405Z,6.07
2019-01-03T18:25:07.735Z,6.57
2019-01-03T18:27:37.059Z,5.70
2019-01-03T18:30:09.399Z,5.07
2019-01-03T18:32:38.398Z,5.80
2019-01-03T18:35:07.701Z,5.60
2019-01-03T18:37:37.022Z,5.83
2019-01-03T18:40:09.753Z,5.63
2019-01-03T18:42:39.081Z,5.67
2019-01-03T18:45:11.436Z,5.57
2019-01-03T18:47:40.761Z,6.20
2019-01-03T18:50:10.093Z,5.93
2019-01-03T18:52:39.417Z,6.50
2019-01-03T18:55:09.171Z,7.00
2019-01-03T18:57:38.533Z,6.90
2019-01-03T19:00:10.971Z,6.67
2019-01-03T19:02:40.302Z,6.00
2019-01-03T19:05:09.617Z,6.43
2019-01-03T19:07:38.613Z,6.20
2019-01-03T19:10:08.598Z,6.00
2019-01-03T19:12:37.834Z,5.43
2019-01-03T19:15:08.902Z,5.97
2019-01-03T19:17:38.226Z,5.93
2019-01-03T19:20:09.594Z,6.17
2019-01-03T19:22:38.581Z,6.17
2019-01-03T19:25:13.448Z,6.07
2019-01-03T19:27:42.765Z,7.10
2019-01-03T19:30:12.498Z,6.20
2019-01-03T19:32:41.857Z,5.70
2019-01-03T19:35:12.014Z,6.00
2019-01-03T19:37:41.337Z,6.93
2019-01-03T19:40:12.914Z,6.70
2019-01-03T19:42:43.373Z,6.47
2019-01-03T19:45:13.147Z,6.10
2019-01-03T19:47:42.471Z,5.97
2019-01-03T19:50:14.743Z,6.10
2019-01-03T19:52:44.638Z,6.27
2019-01-03T19:55:14.038Z,6.20
2019-01-03T19:57:43.367Z,6.57
2019-01-03T20:00:14.801Z,6.07
2019-01-03T20:02:44.194Z,6.57
2019-01-03T20:05:13.516Z,6.97
2019-01-03T20:07:42.846Z,6.47
2019-01-03T20:10:12.848Z,5.57
2019-01-03T20:12:43.374Z,6.53
2019-01-03T20:15:14.322Z,5.87
2019-01-03T20:17:43.711Z,6.70
2019-01-03T20:20:13.040Z,5.83
2019-01-03T20:22:42.368Z,5.93
2019-01-03T20:25:11.964Z,6.27
2019-01-03T20:27:41.295Z,5.73
2019-01-03T20:30:11.121Z,6.37
2019-01-03T20:32:40.554Z,5.80
2019-01-03T20:35:09.873Z,5.67
2019-01-03T20:37:39.198Z,7.12
2019-01-03T20:40:09.490Z,5.80
2019-01-03T20:42:38.809Z,5.97
2019-01-03T20:45:12.855Z,6.90
2019-01-03T20:47:42.240Z,6.03
2019-01-03T20:50:12.697Z,5.70
2019-01-03T20:52:42.025Z,5.50
2019-01-03T20:55:11.346Z,5.77
2019-01-03T20:57:40.639Z,6.20
2019-01-03T21:00:11.051Z,7.13
2019-01-03T21:02:45.213Z,6.50
2019-01-03T21:05:14.536Z,6.47
2019-01-03T21:07:43.863Z,6.30
2019-01-03T21:10:13.393Z,5.80
2019-01-03T21:12:42.723Z,5.50
2019-01-03T21:15:14.682Z,5.73
2019-01-03T21:17:44.010Z,6.83
2019-01-03T21:20:15.374Z,5.50
2019-01-03T21:22:44.707Z,5.97
2019-01-03T21:25:14.029Z,6.03
2019-01-03T21:27:43.352Z,5.37
2019-01-03T21:30:15.582Z,5.33
2019-01-03T21:32:44.910Z,5.60
2019-01-03T21:35:14.264Z,5.83
2019-01-03T21:37:43.642Z,5.60
2019-01-03T21:40:13.109Z,5.27
2019-01-03T21:42:42.517Z,5.27
2019-01-03T21:45:11.512Z,5.50
2019-01-03T21:47:40.754Z,5.47
2019-01-03T21:50:10.422Z,5.53
2019-01-03T21:52:39.654Z,5.33
2019-01-03T21:55:08.982Z,6.07
2019-01-03T21:57:38.310Z,6.60
2019-01-03T22:00:10.187Z,5.93
2019-01-03T22:02:39.182Z,5.83
2019-01-03T22:05:08.480Z,5.53
2019-01-03T22:07:37.490Z,5.87
2019-01-03T22:10:08.967Z,5.40
2019-01-03T22:12:38.296Z,5.23
2019-01-03T22:15:08.867Z,5.67
2019-01-03T22:17:37.859Z,5.60
2019-01-03T22:20:07.642Z,5.80
2019-01-03T22:22:36.549Z,6.03
2019-01-03T22:25:07.363Z,5.72
2019-01-03T22:27:36.410Z,5.83
2019-01-03T22:30:08.551Z,5.37
2019-01-03T22:32:37.871Z,5.30
2019-01-03T22:35:07.243Z,6.20
2019-01-03T22:37:36.172Z,5.87
2019-01-03T22:40:07.506Z,5.20
2019-01-03T22:42:36.503Z,5.37
2019-01-03T22:45:06.778Z,5.35
2019-01-03T22:47:36.049Z,5.53
2019-01-03T22:50:07.721Z,5.70
2019-01-03T22:52:36.637Z,5.63
2019-01-03T22:55:06.782Z,5.30
2019-01-03T22:57:35.778Z,4.93
2019-01-03T23:00:10.218Z,5.37
2019-01-03T23:02:39.127Z,5.33
2019-01-03T23:05:08.353Z,5.00
2019-01-03T23:07:37.677Z,4.70
2019-01-03T23:10:06.720Z,5.17
2019-01-03T23:12:35.644Z,4.83
2019-01-03T23:15:05.650Z,5.57
2019-01-03T23:17:34.650Z,5.40
2019-01-03T23:20:04.222Z,5.43
2019-01-03T23:22:33.121Z,5.10
2019-01-03T23:25:02.033Z,5.40
2019-01-03T23:27:30.931Z,5.20
2019-01-03T23:30:00.180Z,4.33
2019-01-03T23:32:29.229Z,4.80
2019-01-03T23:34:58.124Z,4.93
2019-01-03T23:37:27.358Z,4.67
2019-01-03T23:39:56.347Z,4.70
2019-01-03T23:42:25.582Z,4.83
2019-01-03T23:45:10.773Z,4.33
2019-01-03T23:47:39.675Z,4.63
2019-01-03T23:50:12.780Z,4.30
2019-01-03T23:52:42.010Z,4.57
2019-01-03T23:55:11.332Z,4.47
2019-01-03T23:57:40.398Z,4.43
